sensor_id;sensor_type;location;lat;lon;timestamp;temperature;humidity
70726;DHT22;58304;53.104;6.022;2023-04-15T00:02:13;6.90;99.90
70726;DHT22;58304;53.104;6.022;2023-04-15T00:04:39;6.90;99.90
70726;DHT22;58304;53.104;6.022;2023-04-15T00:07:04;6.80;99.90
70726;DHT22;58304;53.104;6.022;2023-04-15T00:09:30;6.80;99.90
70726;DHT22;58304;53.104;6.022;2023-04-15T00:11:55;6.70;99.90
70726;DHT22;58304;53.104;6.022;2023-04-15T00:14:21;6.70;99.90
70726;DHT22;58304;53.104;6.022;2023-04-15T00:16:47;6.70;99.90
70726;DHT22;58304;53.104;6.022;2023-04-15T00:19:19;6.70;99.90
70726;DHT22;58304;53.104;6.022;2023-04-15T00:21:45;6.70;99.90
70726;DHT22;58304;53.104;6.022;2023-04-15T00:24:10;6.70;99.90
70726;DHT22;58304;53.104;6.022;2023-04-15T00:26:36;6.60;99.90
70726;DHT22;58304;53.104;6.022;2023-04-15T00:29:01;6.60;99.90
70726;DHT22;58304;53.104;6.022;2023-04-15T00:31:27;6.50;99.90
70726;DHT22;58304;53.104;6.022;2023-04-15T00:33:52;6.60;99.90
70726;DHT22;58304;53.104;6.022;2023-04-15T00:36:18;6.50;99.90
70726;DHT22;58304;53.104;6.022;2023-04-15T00:38:43;6.50;99.90
70726;DHT22;58304;53.104;6.022;2023-04-15T00:41:09;6.40;99.90
70726;DHT22;58304;53.104;6.022;2023-04-15T00:43:35;6.40;99.90
70726;DHT22;58304;53.104;6.022;2023-04-15T00:46:01;6.40;99.90
70726;DHT22;58304;53.104;6.022;2023-04-15T00:48:28;6.40;99.90
70726;DHT22;58304;53.104;6.022;2023-04-15T00:50:54;6.30;99.90
70726;DHT22;58304;53.104;6.022;2023-04-15T00:53:19;6.30;99.90
70726;DHT22;58304;53.104;6.022;2023-04-15T00:55:45;6.30;99.90
70726;DHT22;58304;53.104;6.022;2023-04-15T00:58:10;6.30;99.90
70726;DHT22;58304;53.104;6.022;2023-04-15T01:00:36;6.30;99.90
70726;DHT22;58304;53.104;6.022;2023-04-15T01:03:01;6.30;99.90
70726;DHT22;58304;53.104;6.022;2023-04-15T01:05:27;6.20;99.90
70726;DHT22;58304;53.104;6.022;2023-04-15T01:07:54;6.20;99.90
70726;DHT22;58304;53.104;6.022;2023-04-15T01:10:20;6.20;99.90
70726;DHT22;58304;53.104;6.022;2023-04-15T01:12:46;6.10;99.90
70726;DHT22;58304;53.104;6.022;2023-04-15T01:15:12;6.10;99.90
70726;DHT22;58304;53.104;6.022;2023-04-15T01:17:38;6.10;99.90
70726;DHT22;58304;53.104;6.022;2023-04-15T01:20:04;6.10;99.90
70726;DHT22;58304;53.104;6.022;2023-04-15T01:22:32;6.10;99.90
70726;DHT22;58304;53.104;6.022;2023-04-15T01:25:18;6.10;99.90
70726;DHT22;58304;53.104;6.022;2023-04-15T01:27:44;6.00;99.90
70726;DHT22;58304;53.104;6.022;2023-04-15T01:30:10;6.00;99.90
70726;DHT22;58304;53.104;6.022;2023-04-15T01:32:36;6.00;99.90
70726;DHT22;58304;53.104;6.022;2023-04-15T01:35:02;6.00;99.90
70726;DHT22;58304;53.104;6.022;2023-04-15T01:37:28;5.90;99.90
70726;DHT22;58304;53.104;6.022;2023-04-15T01:39:53;5.90;99.90
70726;DHT22;58304;53.104;6.022;2023-04-15T01:42:20;5.90;99.90
70726;DHT22;58304;53.104;6.022;2023-04-15T01:44:46;5.90;99.90
70726;DHT22;58304;53.104;6.022;2023-04-15T01:47:12;5.90;99.90
70726;DHT22;58304;53.104;6.022;2023-04-15T01:49:37;5.80;99.90
70726;DHT22;58304;53.104;6.022;2023-04-15T01:52:03;5.80;99.90
70726;DHT22;58304;53.104;6.022;2023-04-15T01:54:28;5.80;99.90
70726;DHT22;58304;53.104;6.022;2023-04-15T01:56:55;5.80;99.90
70726;DHT22;58304;53.104;6.022;2023-04-15T01:59:21;5.80;99.90
70726;DHT22;58304;53.104;6.022;2023-04-15T02:01:47;5.80;99.90
70726;DHT22;58304;53.104;6.022;2023-04-15T02:04:12;5.70;99.90
70726;DHT22;58304;53.104;6.022;2023-04-15T02:06:44;5.70;99.90
70726;DHT22;58304;53.104;6.022;2023-04-15T02:09:10;5.70;99.90
70726;DHT22;58304;53.104;6.022;2023-04-15T02:11:36;5.70;99.90
70726;DHT22;58304;53.104;6.022;2023-04-15T02:14:04;5.70;99.90
70726;DHT22;58304;53.104;6.022;2023-04-15T02:16:31;5.60;99.90
70726;DHT22;58304;53.104;6.022;2023-04-15T02:18:59;5.60;99.90
70726;DHT22;58304;53.104;6.022;2023-04-15T02:21:28;5.60;99.90
70726;DHT22;58304;53.104;6.022;2023-04-15T02:23:54;5.50;99.90
70726;DHT22;58304;53.104;6.022;2023-04-15T02:26:20;5.50;99.90
70726;DHT22;58304;53.104;6.022;2023-04-15T02:28:47;5.50;99.90
70726;DHT22;58304;53.104;6.022;2023-04-15T02:31:13;5.50;99.90
70726;DHT22;58304;53.104;6.022;2023-04-15T02:33:39;5.40;99.90
70726;DHT22;58304;53.104;6.022;2023-04-15T02:36:04;5.40;99.90
70726;DHT22;58304;53.104;6.022;2023-04-15T02:38:32;5.40;99.90
70726;DHT22;58304;53.104;6.022;2023-04-15T02:40:58;5.30;99.90
70726;DHT22;58304;53.104;6.022;2023-04-15T02:43:24;5.30;99.90
70726;DHT22;58304;53.104;6.022;2023-04-15T02:45:50;5.30;99.90
70726;DHT22;58304;53.104;6.022;2023-04-15T02:48:16;5.30;99.90
70726;DHT22;58304;53.104;6.022;2023-04-15T02:50:45;5.30;99.90
70726;DHT22;58304;53.104;6.022;2023-04-15T02:53:10;5.30;99.90
70726;DHT22;58304;53.104;6.022;2023-04-15T02:55:37;5.20;99.90
70726;DHT22;58304;53.104;6.022;2023-04-15T02:58:03;5.20;99.90
70726;DHT22;58304;53.104;6.022;2023-04-15T03:00:28;5.20;99.90
70726;DHT22;58304;53.104;6.022;2023-04-15T03:03:00;5.20;99.90
70726;DHT22;58304;53.104;6.022;2023-04-15T03:05:26;5.20;99.90
70726;DHT22;58304;53.104;6.022;2023-04-15T03:07:52;5.20;99.90
70726;DHT22;58304;53.104;6.022;2023-04-15T03:10:18;5.20;99.90
70726;DHT22;58304;53.104;6.022;2023-04-15T03:12:44;5.20;99.90
70726;DHT22;58304;53.104;6.022;2023-04-15T03:15:10;5.20;99.90
70726;DHT22;58304;53.104;6.022;2023-04-15T03:17:36;5.10;99.90
70726;DHT22;58304;53.104;6.022;2023-04-15T03:20:02;5.20;99.90
70726;DHT22;58304;53.104;6.022;2023-04-15T03:22:31;5.10;99.90
70726;DHT22;58304;53.104;6.022;2023-04-15T03:24:57;5.10;99.90
70726;DHT22;58304;53.104;6.022;2023-04-15T03:27:23;5.10;99.90
70726;DHT22;58304;53.104;6.022;2023-04-15T03:29:49;5.10;99.90
70726;DHT22;58304;53.104;6.022;2023-04-15T03:32:14;5.10;99.90
70726;DHT22;58304;53.104;6.022;2023-04-15T03:34:40;5.10;99.90
70726;DHT22;58304;53.104;6.022;2023-04-15T03:37:07;5.00;99.90
70726;DHT22;58304;53.104;6.022;2023-04-15T03:39:33;5.00;99.90
70726;DHT22;58304;53.104;6.022;2023-04-15T03:41:59;5.00;99.90
70726;DHT22;58304;53.104;6.022;2023-04-15T03:44:27;5.00;99.90
70726;DHT22;58304;53.104;6.022;2023-04-15T03:46:53;4.90;99.90
70726;DHT22;58304;53.104;6.022;2023-04-15T03:49:19;4.90;99.90
70726;DHT22;58304;53.104;6.022;2023-04-15T03:51:45;4.80;99.90
70726;DHT22;58304;53.104;6.022;2023-04-15T03:54:11;4.80;99.90
70726;DHT22;58304;53.104;6.022;2023-04-15T03:56:37;4.70;99.90
70726;DHT22;58304;53.104;6.022;2023-04-15T03:59:02;4.70;99.90
70726;DHT22;58304;53.104;6.022;2023-04-15T04:01:28;4.70;99.90
70726;DHT22;58304;53.104;6.022;2023-04-15T04:03:54;4.60;99.90
70726;DHT22;58304;53.104;6.022;2023-04-15T04:06:20;4.60;99.90
70726;DHT22;58304;53.104;6.022;2023-04-15T04:08:45;4.50;99.90
70726;DHT22;58304;53.104;6.022;2023-04-15T04:11:11;4.50;99.90
70726;DHT22;58304;53.104;6.022;2023-04-15T04:13:37;4.50;99.90
70726;DHT22;58304;53.104;6.022;2023-04-15T04:16:02;4.50;99.90
70726;DHT22;58304;53.104;6.022;2023-04-15T04:18:32;4.50;99.90
70726;DHT22;58304;53.104;6.022;2023-04-15T04:20:58;4.40;99.90
70726;DHT22;58304;53.104;6.022;2023-04-15T04:23:24;4.40;99.90
70726;DHT22;58304;53.104;6.022;2023-04-15T04:25:50;4.40;99.90
70726;DHT22;58304;53.104;6.022;2023-04-15T04:28:16;4.40;99.90
70726;DHT22;58304;53.104;6.022;2023-04-15T04:30:41;4.40;99.90
70726;DHT22;58304;53.104;6.022;2023-04-15T04:33:07;4.40;99.90
70726;DHT22;58304;53.104;6.022;2023-04-15T04:35:32;4.40;99.90
70726;DHT22;58304;53.104;6.022;2023-04-15T04:38:00;4.40;99.90
70726;DHT22;58304;53.104;6.022;2023-04-15T04:40:25;4.30;99.90
70726;DHT22;58304;53.104;6.022;2023-04-15T04:42:52;4.30;99.90
70726;DHT22;58304;53.104;6.022;2023-04-15T04:45:18;4.30;99.90
70726;DHT22;58304;53.104;6.022;2023-04-15T04:47:43;4.30;99.90
70726;DHT22;58304;53.104;6.022;2023-04-15T04:50:09;4.30;99.90
70726;DHT22;58304;53.104;6.022;2023-04-15T04:52:35;4.30;99.90
70726;DHT22;58304;53.104;6.022;2023-04-15T04:55:01;4.30;99.90
70726;DHT22;58304;53.104;6.022;2023-04-15T04:57:26;4.30;99.90
70726;DHT22;58304;53.104;6.022;2023-04-15T04:59:52;4.30;99.90
70726;DHT22;58304;53.104;6.022;2023-04-15T05:02:17;4.30;99.90
70726;DHT22;58304;53.104;6.022;2023-04-15T05:04:43;4.30;99.90
70726;DHT22;58304;53.104;6.022;2023-04-15T05:07:08;4.30;99.90
70726;DHT22;58304;53.104;6.022;2023-04-15T05:09:35;4.30;99.90
70726;DHT22;58304;53.104;6.022;2023-04-15T05:12:02;4.40;99.90
70726;DHT22;58304;53.104;6.022;2023-04-15T05:14:28;4.40;99.90
70726;DHT22;58304;53.104;6.022;2023-04-15T05:16:53;4.40;99.90
70726;DHT22;58304;53.104;6.022;2023-04-15T05:19:19;4.40;99.90
70726;DHT22;58304;53.104;6.022;2023-04-15T05:21:45;4.40;99.90
70726;DHT22;58304;53.104;6.022;2023-04-15T05:24:10;4.50;99.90
70726;DHT22;58304;53.104;6.022;2023-04-15T05:26:36;4.50;99.90
70726;DHT22;58304;53.104;6.022;2023-04-15T05:29:02;4.60;99.90
70726;DHT22;58304;53.104;6.022;2023-04-15T05:31:27;4.80;99.90
70726;DHT22;58304;53.104;6.022;2023-04-15T05:33:53;5.10;99.90
70726;DHT22;58304;53.104;6.022;2023-04-15T05:36:18;5.30;99.90
70726;DHT22;58304;53.104;6.022;2023-04-15T05:38:44;5.50;99.90
70726;DHT22;58304;53.104;6.022;2023-04-15T05:41:10;5.60;99.90
70726;DHT22;58304;53.104;6.022;2023-04-15T05:43:35;5.70;99.90
70726;DHT22;58304;53.104;6.022;2023-04-15T05:46:01;5.80;99.90
70726;DHT22;58304;53.104;6.022;2023-04-15T05:48:27;5.90;99.90
70726;DHT22;58304;53.104;6.022;2023-04-15T05:50:52;6.10;99.90
70726;DHT22;58304;53.104;6.022;2023-04-15T05:53:18;6.20;99.90
70726;DHT22;58304;53.104;6.022;2023-04-15T05:55:43;6.40;99.90
70726;DHT22;58304;53.104;6.022;2023-04-15T05:58:09;6.60;99.90
70726;DHT22;58304;53.104;6.022;2023-04-15T06:00:34;6.90;99.90
70726;DHT22;58304;53.104;6.022;2023-04-15T06:03:00;7.20;99.90
70726;DHT22;58304;53.104;6.022;2023-04-15T06:05:26;7.50;99.90
70726;DHT22;58304;53.104;6.022;2023-04-15T06:07:52;7.90;99.90
70726;DHT22;58304;53.104;6.022;2023-04-15T06:10:17;8.30;99.90
70726;DHT22;58304;53.104;6.022;2023-04-15T06:12:43;8.80;99.90
70726;DHT22;58304;53.104;6.022;2023-04-15T06:15:08;9.40;99.90
70726;DHT22;58304;53.104;6.022;2023-04-15T06:17:35;10.00;99.90
70726;DHT22;58304;53.104;6.022;2023-04-15T06:20:01;10.60;99.90
70726;DHT22;58304;53.104;6.022;2023-04-15T06:22:27;11.20;99.90
70726;DHT22;58304;53.104;6.022;2023-04-15T06:24:53;11.40;99.90
70726;DHT22;58304;53.104;6.022;2023-04-15T06:27:18;11.80;99.90
70726;DHT22;58304;53.104;6.022;2023-04-15T06:29:44;12.00;99.90
70726;DHT22;58304;53.104;6.022;2023-04-15T06:32:09;12.30;99.90
70726;DHT22;58304;53.104;6.022;2023-04-15T06:34:36;12.60;99.90
70726;DHT22;58304;53.104;6.022;2023-04-15T06:37:01;12.60;99.90
70726;DHT22;58304;53.104;6.022;2023-04-15T06:39:27;12.60;99.90
70726;DHT22;58304;53.104;6.022;2023-04-15T06:41:52;12.60;99.90
70726;DHT22;58304;53.104;6.022;2023-04-15T06:44:18;12.80;99.90
70726;DHT22;58304;53.104;6.022;2023-04-15T06:46:43;13.40;99.90
70726;DHT22;58304;53.104;6.022;2023-04-15T06:49:09;14.00;99.90
70726;DHT22;58304;53.104;6.022;2023-04-15T06:51:36;14.50;99.90
70726;DHT22;58304;53.104;6.022;2023-04-15T06:54:02;14.80;99.90
70726;DHT22;58304;53.104;6.022;2023-04-15T06:56:30;15.20;99.90
70726;DHT22;58304;53.104;6.022;2023-04-15T06:58:56;15.20;99.90
70726;DHT22;58304;53.104;6.022;2023-04-15T07:01:22;15.40;99.90
70726;DHT22;58304;53.104;6.022;2023-04-15T07:03:47;15.40;99.90
70726;DHT22;58304;53.104;6.022;2023-04-15T07:06:13;15.50;99.90
70726;DHT22;58304;53.104;6.022;2023-04-15T07:08:39;15.80;99.90
70726;DHT22;58304;53.104;6.022;2023-04-15T07:11:05;15.90;99.90
70726;DHT22;58304;53.104;6.022;2023-04-15T07:13:31;16.40;99.90
70726;DHT22;58304;53.104;6.022;2023-04-15T07:15:57;16.70;99.90
70726;DHT22;58304;53.104;6.022;2023-04-15T07:18:22;16.80;99.90
70726;DHT22;58304;53.104;6.022;2023-04-15T07:20:48;17.00;99.90
70726;DHT22;58304;53.104;6.022;2023-04-15T07:23:14;17.10;99.90
70726;DHT22;58304;53.104;6.022;2023-04-15T07:25:39;16.60;99.90
70726;DHT22;58304;53.104;6.022;2023-04-15T07:28:05;17.20;99.90
70726;DHT22;58304;53.104;6.022;2023-04-15T07:30:31;17.40;99.90
70726;DHT22;58304;53.104;6.022;2023-04-15T07:32:57;17.70;99.90
70726;DHT22;58304;53.104;6.022;2023-04-15T07:35:23;17.80;99.90
70726;DHT22;58304;53.104;6.022;2023-04-15T07:37:50;18.10;99.90
70726;DHT22;58304;53.104;6.022;2023-04-15T07:40:16;18.10;99.90
70726;DHT22;58304;53.104;6.022;2023-04-15T07:42:42;18.10;99.90
70726;DHT22;58304;53.104;6.022;2023-04-15T07:45:08;18.10;99.90
70726;DHT22;58304;53.104;6.022;2023-04-15T07:47:34;17.60;99.90
70726;DHT22;58304;53.104;6.022;2023-04-15T07:50:00;17.40;99.90
70726;DHT22;58304;53.104;6.022;2023-04-15T07:52:27;17.10;99.90
70726;DHT22;58304;53.104;6.022;2023-04-15T07:54:54;16.80;99.90
70726;DHT22;58304;53.104;6.022;2023-04-15T07:57:20;16.30;99.90
70726;DHT22;58304;53.104;6.022;2023-04-15T07:59:46;16.10;99.90
70726;DHT22;58304;53.104;6.022;2023-04-15T08:02:11;15.90;99.90
70726;DHT22;58304;53.104;6.022;2023-04-15T08:04:53;15.80;99.90
70726;DHT22;58304;53.104;6.022;2023-04-15T08:07:18;16.10;99.90
70726;DHT22;58304;53.104;6.022;2023-04-15T08:09:44;16.50;99.90
70726;DHT22;58304;53.104;6.022;2023-04-15T08:12:10;16.80;99.90
70726;DHT22;58304;53.104;6.022;2023-04-15T08:14:38;17.00;99.90
70726;DHT22;58304;53.104;6.022;2023-04-15T08:17:04;17.10;99.90
70726;DHT22;58304;53.104;6.022;2023-04-15T08:19:30;17.50;99.90
70726;DHT22;58304;53.104;6.022;2023-04-15T08:21:56;17.80;99.90
70726;DHT22;58304;53.104;6.022;2023-04-15T08:24:22;17.90;99.90
70726;DHT22;58304;53.104;6.022;2023-04-15T08:26:48;18.10;99.90
70726;DHT22;58304;53.104;6.022;2023-04-15T08:29:15;18.20;99.90
70726;DHT22;58304;53.104;6.022;2023-04-15T08:31:41;18.40;99.90
70726;DHT22;58304;53.104;6.022;2023-04-15T08:34:06;18.30;99.90
70726;DHT22;58304;53.104;6.022;2023-04-15T08:36:32;18.20;99.90
70726;DHT22;58304;53.104;6.022;2023-04-15T08:38:58;18.00;99.90
70726;DHT22;58304;53.104;6.022;2023-04-15T08:41:25;17.80;99.90
70726;DHT22;58304;53.104;6.022;2023-04-15T08:44:00;17.50;99.90
70726;DHT22;58304;53.104;6.022;2023-04-15T08:46:29;17.00;99.90
70726;DHT22;58304;53.104;6.022;2023-04-15T08:48:56;16.40;99.90
70726;DHT22;58304;53.104;6.022;2023-04-15T08:51:23;16.00;99.90
70726;DHT22;58304;53.104;6.022;2023-04-15T08:53:49;15.70;99.90
70726;DHT22;58304;53.104;6.022;2023-04-15T08:56:15;15.20;99.90
70726;DHT22;58304;53.104;6.022;2023-04-15T08:58:43;15.00;99.90
70726;DHT22;58304;53.104;6.022;2023-04-15T09:01:11;14.60;99.90
70726;DHT22;58304;53.104;6.022;2023-04-15T09:03:37;14.50;99.90
70726;DHT22;58304;53.104;6.022;2023-04-15T09:06:04;14.30;99.90
70726;DHT22;58304;53.104;6.022;2023-04-15T09:08:30;14.20;99.90
70726;DHT22;58304;53.104;6.022;2023-04-15T09:10:56;14.10;99.90
70726;DHT22;58304;53.104;6.022;2023-04-15T09:13:21;13.80;99.90
70726;DHT22;58304;53.104;6.022;2023-04-15T09:15:47;13.60;99.90
70726;DHT22;58304;53.104;6.022;2023-04-15T09:18:25;13.50;99.90
70726;DHT22;58304;53.104;6.022;2023-04-15T09:20:52;13.20;99.90
70726;DHT22;58304;53.104;6.022;2023-04-15T09:23:18;13.00;99.90
70726;DHT22;58304;53.104;6.022;2023-04-15T09:25:44;13.00;99.90
70726;DHT22;58304;53.104;6.022;2023-04-15T09:28:10;12.90;99.90
70726;DHT22;58304;53.104;6.022;2023-04-15T09:30:36;12.80;99.90
70726;DHT22;58304;53.104;6.022;2023-04-15T09:33:02;12.60;99.90
70726;DHT22;58304;53.104;6.022;2023-04-15T09:35:33;12.60;99.90
70726;DHT22;58304;53.104;6.022;2023-04-15T09:38:07;12.60;99.90
70726;DHT22;58304;53.104;6.022;2023-04-15T09:40:35;13.00;99.90
70726;DHT22;58304;53.104;6.022;2023-04-15T09:43:03;14.00;99.90
70726;DHT22;58304;53.104;6.022;2023-04-15T09:45:29;14.50;99.90
70726;DHT22;58304;53.104;6.022;2023-04-15T09:48:23;15.00;99.90
70726;DHT22;58304;53.104;6.022;2023-04-15T09:50:51;15.60;99.90
70726;DHT22;58304;53.104;6.022;2023-04-15T09:53:22;16.10;99.90
70726;DHT22;58304;53.104;6.022;2023-04-15T09:55:52;16.20;99.90
70726;DHT22;58304;53.104;6.022;2023-04-15T09:58:28;16.10;99.90
70726;DHT22;58304;53.104;6.022;2023-04-15T10:00:55;15.70;99.90
70726;DHT22;58304;53.104;6.022;2023-04-15T10:03:26;15.70;99.90
70726;DHT22;58304;53.104;6.022;2023-04-15T10:05:54;15.70;99.90
70726;DHT22;58304;53.104;6.022;2023-04-15T10:08:25;15.30;99.90
70726;DHT22;58304;53.104;6.022;2023-04-15T10:10:52;15.30;99.90
70726;DHT22;58304;53.104;6.022;2023-04-15T10:13:29;15.20;99.90
70726;DHT22;58304;53.104;6.022;2023-04-15T10:16:13;15.00;99.90
70726;DHT22;58304;53.104;6.022;2023-04-15T10:18:42;15.10;99.90
70726;DHT22;58304;53.104;6.022;2023-04-15T10:21:08;15.00;99.90
70726;DHT22;58304;53.104;6.022;2023-04-15T10:23:34;14.80;99.90
70726;DHT22;58304;53.104;6.022;2023-04-15T10:26:02;14.80;99.90
70726;DHT22;58304;53.104;6.022;2023-04-15T10:28:28;14.90;99.90
70726;DHT22;58304;53.104;6.022;2023-04-15T10:30:54;14.50;99.90
70726;DHT22;58304;53.104;6.022;2023-04-15T10:33:22;14.50;99.90
70726;DHT22;58304;53.104;6.022;2023-04-15T10:35:51;14.50;99.90
70726;DHT22;58304;53.104;6.022;2023-04-15T10:38:36;14.40;99.90
70726;DHT22;58304;53.104;6.022;2023-04-15T10:41:25;14.50;99.90
70726;DHT22;58304;53.104;6.022;2023-04-15T10:44:00;14.30;99.90
70726;DHT22;58304;53.104;6.022;2023-04-15T10:46:41;14.20;99.90
70726;DHT22;58304;53.104;6.022;2023-04-15T10:49:15;14.00;99.90
70726;DHT22;58304;53.104;6.022;2023-04-15T10:51:46;14.00;99.90
70726;DHT22;58304;53.104;6.022;2023-04-15T10:54:16;13.90;99.90
70726;DHT22;58304;53.104;6.022;2023-04-15T10:56:43;13.30;99.90
70726;DHT22;58304;53.104;6.022;2023-04-15T10:59:09;13.40;99.90
70726;DHT22;58304;53.104;6.022;2023-04-15T11:01:55;13.20;99.90
70726;DHT22;58304;53.104;6.022;2023-04-15T11:04:57;13.20;99.90
70726;DHT22;58304;53.104;6.022;2023-04-15T11:13:36;13.70;99.90
70726;DHT22;58304;53.104;6.022;2023-04-15T11:15:45;13.60;99.90
70726;DHT22;58304;53.104;6.022;2023-04-15T11:18:22;13.30;99.90
70726;DHT22;58304;53.104;6.022;2023-04-15T11:20:49;13.10;99.90
70726;DHT22;58304;53.104;6.022;2023-04-15T11:23:26;13.00;99.90
70726;DHT22;58304;53.104;6.022;2023-04-15T11:25:54;13.00;99.90
70726;DHT22;58304;53.104;6.022;2023-04-15T11:28:27;12.80;99.90
70726;DHT22;58304;53.104;6.022;2023-04-15T11:30:54;12.50;99.90
70726;DHT22;58304;53.104;6.022;2023-04-15T11:33:20;12.30;99.90
70726;DHT22;58304;53.104;6.022;2023-04-15T11:35:47;12.40;99.90
70726;DHT22;58304;53.104;6.022;2023-04-15T11:38:13;12.50;99.90
70726;DHT22;58304;53.104;6.022;2023-04-15T11:40:41;12.40;99.90
70726;DHT22;58304;53.104;6.022;2023-04-15T11:43:08;12.30;99.90
70726;DHT22;58304;53.104;6.022;2023-04-15T11:45:36;12.30;99.90
70726;DHT22;58304;53.104;6.022;2023-04-15T11:48:09;12.30;99.90
70726;DHT22;58304;53.104;6.022;2023-04-15T11:50:35;12.30;99.90
70726;DHT22;58304;53.104;6.022;2023-04-15T11:53:06;12.30;99.90
70726;DHT22;58304;53.104;6.022;2023-04-15T11:55:41;12.20;99.90
70726;DHT22;58304;53.104;6.022;2023-04-15T11:58:22;11.90;99.90
70726;DHT22;58304;53.104;6.022;2023-04-15T12:00:56;11.70;99.90
70726;DHT22;58304;53.104;6.022;2023-04-15T12:03:24;11.70;99.90
70726;DHT22;58304;53.104;6.022;2023-04-15T12:14:06;12.20;99.90
70726;DHT22;58304;53.104;6.022;2023-04-15T12:16:34;12.00;99.90
70726;DHT22;58304;53.104;6.022;2023-04-15T12:19:04;11.90;99.90
70726;DHT22;58304;53.104;6.022;2023-04-15T12:21:33;12.00;99.90
70726;DHT22;58304;53.104;6.022;2023-04-15T12:24:02;11.90;99.90
70726;DHT22;58304;53.104;6.022;2023-04-15T12:26:53;12.00;99.90
70726;DHT22;58304;53.104;6.022;2023-04-15T12:29:20;12.10;99.90
70726;DHT22;58304;53.104;6.022;2023-04-15T12:34:48;12.00;99.90
70726;DHT22;58304;53.104;6.022;2023-04-15T12:37:12;12.00;99.90
70726;DHT22;58304;53.104;6.022;2023-04-15T12:39:40;12.10;99.90
70726;DHT22;58304;53.104;6.022;2023-04-15T12:42:07;12.00;99.90
70726;DHT22;58304;53.104;6.022;2023-04-15T12:44:33;11.90;99.90
70726;DHT22;58304;53.104;6.022;2023-04-15T12:46:59;12.00;99.90
70726;DHT22;58304;53.104;6.022;2023-04-15T12:49:25;12.10;99.90
70726;DHT22;58304;53.104;6.022;2023-04-15T12:51:53;12.10;99.90
70726;DHT22;58304;53.104;6.022;2023-04-15T12:54:19;11.90;99.90
70726;DHT22;58304;53.104;6.022;2023-04-15T12:56:46;11.90;99.90
70726;DHT22;58304;53.104;6.022;2023-04-15T12:59:13;11.70;99.90
70726;DHT22;58304;53.104;6.022;2023-04-15T13:01:39;11.70;99.90
70726;DHT22;58304;53.104;6.022;2023-04-15T13:04:06;11.80;99.90
70726;DHT22;58304;53.104;6.022;2023-04-15T13:06:31;11.60;99.90
70726;DHT22;58304;53.104;6.022;2023-04-15T13:09:01;11.50;99.90
70726;DHT22;58304;53.104;6.022;2023-04-15T13:11:28;11.50;99.90
70726;DHT22;58304;53.104;6.022;2023-04-15T13:13:59;11.40;99.90
70726;DHT22;58304;53.104;6.022;2023-04-15T13:16:25;11.40;99.90
70726;DHT22;58304;53.104;6.022;2023-04-15T13:18:51;11.50;99.90
70726;DHT22;58304;53.104;6.022;2023-04-15T13:21:17;11.50;99.90
70726;DHT22;58304;53.104;6.022;2023-04-15T13:23:43;11.20;99.90
70726;DHT22;58304;53.104;6.022;2023-04-15T13:26:09;11.20;99.90
70726;DHT22;58304;53.104;6.022;2023-04-15T13:28:34;11.30;99.90
70726;DHT22;58304;53.104;6.022;2023-04-15T13:31:00;11.30;99.90
70726;DHT22;58304;53.104;6.022;2023-04-15T13:33:26;11.40;99.90
70726;DHT22;58304;53.104;6.022;2023-04-15T13:35:52;11.60;99.90
70726;DHT22;58304;53.104;6.022;2023-04-15T13:38:18;11.50;99.90
70726;DHT22;58304;53.104;6.022;2023-04-15T13:40:43;11.30;99.90
70726;DHT22;58304;53.104;6.022;2023-04-15T13:43:09;11.40;99.90
70726;DHT22;58304;53.104;6.022;2023-04-15T13:45:35;11.40;99.90
70726;DHT22;58304;53.104;6.022;2023-04-15T13:48:01;11.40;99.90
70726;DHT22;58304;53.104;6.022;2023-04-15T13:50:27;11.30;99.90
70726;DHT22;58304;53.104;6.022;2023-04-15T13:52:52;11.30;99.90
70726;DHT22;58304;53.104;6.022;2023-04-15T13:55:18;11.40;99.90
70726;DHT22;58304;53.104;6.022;2023-04-15T13:57:44;11.50;99.90
70726;DHT22;58304;53.104;6.022;2023-04-15T14:00:10;11.60;99.90
70726;DHT22;58304;53.104;6.022;2023-04-15T14:02:36;11.60;99.90
70726;DHT22;58304;53.104;6.022;2023-04-15T14:05:02;11.60;99.90
70726;DHT22;58304;53.104;6.022;2023-04-15T14:07:30;11.40;99.90
70726;DHT22;58304;53.104;6.022;2023-04-15T14:09:56;11.50;99.90
70726;DHT22;58304;53.104;6.022;2023-04-15T14:12:22;11.40;99.90
70726;DHT22;58304;53.104;6.022;2023-04-15T14:14:47;11.40;99.90
70726;DHT22;58304;53.104;6.022;2023-04-15T14:17:13;11.20;99.90
70726;DHT22;58304;53.104;6.022;2023-04-15T14:19:38;11.30;99.90
70726;DHT22;58304;53.104;6.022;2023-04-15T14:22:04;11.30;99.90
70726;DHT22;58304;53.104;6.022;2023-04-15T14:24:30;11.30;99.90
70726;DHT22;58304;53.104;6.022;2023-04-15T14:26:55;11.10;99.90
70726;DHT22;58304;53.104;6.022;2023-04-15T14:29:22;11.10;99.90
70726;DHT22;58304;53.104;6.022;2023-04-15T14:31:47;11.00;99.90
70726;DHT22;58304;53.104;6.022;2023-04-15T14:34:14;10.90;99.90
70726;DHT22;58304;53.104;6.022;2023-04-15T14:36:40;10.90;99.90
70726;DHT22;58304;53.104;6.022;2023-04-15T14:39:06;10.80;99.90
70726;DHT22;58304;53.104;6.022;2023-04-15T14:41:33;10.80;99.90
70726;DHT22;58304;53.104;6.022;2023-04-15T14:43:58;11.00;99.90
70726;DHT22;58304;53.104;6.022;2023-04-15T14:46:24;10.80;99.90
70726;DHT22;58304;53.104;6.022;2023-04-15T14:48:50;10.90;99.90
70726;DHT22;58304;53.104;6.022;2023-04-15T14:51:16;10.80;99.90
70726;DHT22;58304;53.104;6.022;2023-04-15T14:53:41;10.70;99.90
70726;DHT22;58304;53.104;6.022;2023-04-15T14:56:07;10.70;99.90
70726;DHT22;58304;53.104;6.022;2023-04-15T14:58:32;10.60;99.90
70726;DHT22;58304;53.104;6.022;2023-04-15T15:00:58;10.40;99.90
70726;DHT22;58304;53.104;6.022;2023-04-15T15:03:24;10.40;99.90
70726;DHT22;58304;53.104;6.022;2023-04-15T15:05:50;10.30;99.90
70726;DHT22;58304;53.104;6.022;2023-04-15T15:08:15;10.20;99.90
70726;DHT22;58304;53.104;6.022;2023-04-15T15:10:41;10.20;99.90
70726;DHT22;58304;53.104;6.022;2023-04-15T15:13:08;10.20;99.90
70726;DHT22;58304;53.104;6.022;2023-04-15T15:15:34;10.30;99.90
70726;DHT22;58304;53.104;6.022;2023-04-15T15:18:01;10.40;99.90
70726;DHT22;58304;53.104;6.022;2023-04-15T15:20:28;10.50;99.90
70726;DHT22;58304;53.104;6.022;2023-04-15T15:22:53;10.60;99.90
70726;DHT22;58304;53.104;6.022;2023-04-15T15:25:19;10.70;99.90
70726;DHT22;58304;53.104;6.022;2023-04-15T15:27:45;10.60;99.90
70726;DHT22;58304;53.104;6.022;2023-04-15T15:30:11;10.60;99.90
70726;DHT22;58304;53.104;6.022;2023-04-15T15:32:39;10.60;99.90
70726;DHT22;58304;53.104;6.022;2023-04-15T15:35:05;10.50;99.90
70726;DHT22;58304;53.104;6.022;2023-04-15T15:37:31;10.40;99.90
70726;DHT22;58304;53.104;6.022;2023-04-15T15:39:56;10.40;99.90
70726;DHT22;58304;53.104;6.022;2023-04-15T15:42:22;10.30;99.90
70726;DHT22;58304;53.104;6.022;2023-04-15T15:44:48;10.30;99.90
70726;DHT22;58304;53.104;6.022;2023-04-15T15:47:15;10.20;99.90
70726;DHT22;58304;53.104;6.022;2023-04-15T15:49:40;10.10;99.90
70726;DHT22;58304;53.104;6.022;2023-04-15T15:52:06;10.10;99.90
70726;DHT22;58304;53.104;6.022;2023-04-15T15:54:32;10.00;99.90